Time;durP1;ratioP1;P1;durP2;ratioP2;P2;SDS_P1;SDS_P2;PMS_P1;PMS_P2;Temp;Humidity;BMP_temperature;BMP_pressure;BME280_temperature;BME280_humidity;BME280_pressure;Samples;Min_cycle;Max_cycle;Signal;HPM_P1;HPM_P2
2022/06/26 00:00:55;;;;;;;;;1.00;1.00;;;;;20.62;53.33;100763.50;2087302;28;47367;-58
2022/06/26 00:01:56;;;;;;;;;3.00;3.00;;;;;20.62;53.43;100752.72;2087556;28;47625;-58
2022/06/26 00:02:56;;;;;;;;;2.33;2.33;;;;;20.62;53.82;100758.13;2086510;28;47614;-58
2022/06/26 00:03:56;;;;;;;;;1.33;0.33;;;;;20.63;53.62;100750.88;2087576;28;47593;-56
2022/06/26 00:04:57;;;;;;;;;2.00;2.00;;;;;20.62;53.73;100755.41;2087809;28;47338;-58
2022/06/26 00:05:57;;;;;;;;;1.00;1.00;;;;;20.64;53.76;100752.63;2086630;28;47329;-57
2022/06/26 00:06:59;;;;;;;;;2.67;2.67;;;;;20.63;53.65;100762.53;2078259;28;47768;-55
2022/06/26 00:08:00;;;;;;;;;1.75;1.75;;;;;20.63;53.44;100767.06;2085917;28;47687;-59
2022/06/26 00:09:00;;;;;;;;;2.33;2.33;;;;;20.61;53.72;100760.91;2089856;28;47301;-55
2022/06/26 00:10:01;;;;;;;;;1.00;1.00;;;;;20.60;53.29;100768.13;2095797;28;46661;-57
2022/06/26 00:11:02;;;;;;;;;1.67;1.67;;;;;20.59;53.27;100758.31;2088093;28;45962;-57
2022/06/26 00:12:03;;;;;;;;;3.00;3.00;;;;;20.59;53.47;100766.41;2086585;28;47033;-56
2022/06/26 00:13:03;;;;;;;;;0.50;0.50;;;;;20.58;53.42;100770.03;2077735;28;47395;-56
2022/06/26 00:14:03;;;;;;;;;3.67;1.67;;;;;20.56;53.35;100764.75;2085870;28;47629;-55
2022/06/26 00:15:04;;;;;;;;;2.00;2.00;;;;;20.56;53.86;100764.75;2087629;28;46748;-57
2022/06/26 00:16:05;;;;;;;;;3.75;2.75;;;;;20.54;53.39;100761.28;2094160;28;47745;-59
2022/06/26 00:17:06;;;;;;;;;0.33;0.33;;;;;20.54;53.54;100755.88;2095912;28;47705;-53
2022/06/26 00:18:06;;;;;;;;;3.50;3.50;;;;;20.53;53.79;100764.94;2088431;28;48308;-55
2022/06/26 00:19:07;;;;;;;;;3.67;3.67;;;;;20.53;54.12;100762.25;2088507;28;47450;-57
2022/06/26 00:20:08;;;;;;;;;3.00;2.00;;;;;20.53;54.07;100761.38;2087785;28;47646;-55
2022/06/26 00:21:09;;;;;;;;;1.00;1.00;;;;;20.51;53.49;100758.78;2090930;28;47255;-56
2022/06/26 00:22:09;;;;;;;;;2.00;2.00;;;;;20.52;53.36;100765.03;2088688;28;47474;-57
2022/06/26 00:23:10;;;;;;;;;2.00;2.00;;;;;20.50;54.01;100759.75;2083711;28;47910;-58
2022/06/26 00:24:11;;;;;;;;;2.00;2.00;;;;;20.50;54.02;100764.28;2088229;28;47508;-57
2022/06/26 00:25:11;;;;;;;;;2.25;2.25;;;;;20.48;53.80;100758.97;2088972;28;47769;-58
2022/06/26 00:26:12;;;;;;;;;3.33;3.33;;;;;20.48;53.86;100763.50;2088714;28;47599;-57
2022/06/26 00:27:12;;;;;;;;;1.00;1.00;;;;;20.46;53.58;100754.66;2091972;28;47759;-57
2022/06/26 00:28:13;;;;;;;;;1.67;1.67;;;;;20.46;54.12;100765.44;2096369;28;48143;-55
2022/06/26 00:29:13;;;;;;;;;1.00;1.00;;;;;20.44;54.20;100757.41;2088812;28;47784;-56
2022/06/26 00:30:14;;;;;;;;;2.00;2.00;;;;;20.44;54.11;100753.84;2088629;28;47391;-57
2022/06/26 00:31:14;;;;;;;;;2.00;2.00;;;;;20.43;54.29;100754.81;2087715;28;47437;-58
2022/06/26 00:32:15;;;;;;;;;1.00;1.00;;;;;20.43;53.85;100754.81;2088627;28;47220;-57
2022/06/26 00:33:15;;;;;;;;;2.00;2.00;;;;;20.44;53.83;100756.53;2088898;28;45736;-56
2022/06/26 00:34:15;;;;;;;;;2.00;2.00;;;;;20.44;53.88;100753.84;2088813;28;47535;-56
2022/06/26 00:35:16;;;;;;;;;2.67;2.67;;;;;20.44;54.26;100752.03;2088464;28;47123;-58
2022/06/26 00:36:17;;;;;;;;;1.67;1.67;;;;;20.44;54.25;100757.41;2084796;28;47452;-56
2022/06/26 00:37:17;;;;;;;;;2.67;2.00;;;;;20.44;54.15;100756.53;2086646;28;47532;-58
2022/06/26 00:38:18;;;;;;;;;2.00;1.00;;;;;20.43;53.89;100752.97;2093326;28;47556;-58
2022/06/26 00:39:18;;;;;;;;;2.67;2.67;;;;;20.42;53.82;100756.66;2088991;28;47836;-58
2022/06/26 00:40:18;;;;;;;;;1.67;1.67;;;;;20.41;53.76;100749.50;2088723;28;47955;-56
2022/06/26 00:41:19;;;;;;;;;2.00;1.33;;;;;20.41;53.70;100744.09;2083011;28;47494;-57
2022/06/26 00:42:20;;;;;;;;;2.00;2.00;;;;;20.41;54.31;100754.00;2088600;28;47350;-56
2022/06/26 00:43:26;;;;;;;;;1.75;1.75;;;;;20.40;54.33;100758.53;2088765;28;47848;-56
2022/06/26 00:44:27;;;;;;;;;2.25;2.25;;;;;20.42;53.81;100755.78;2088694;28;47638;-57
2022/06/26 00:45:27;;;;;;;;;1.75;1.75;;;;;20.42;53.77;100755.78;2088055;28;47720;-57
2022/06/26 00:46:27;;;;;;;;;1.33;1.33;;;;;20.40;53.94;100747.75;2088121;28;47639;-57
2022/06/26 00:47:30;;;;;;;;;2.00;1.00;;;;;20.41;53.69;100752.19;2087953;28;47454;-57
2022/06/26 00:48:31;;;;;;;;;3.25;2.75;;;;;20.41;54.00;100752.19;2088742;28;48350;-59
2022/06/26 00:49:31;;;;;;;;;5.00;3.00;;;;;20.41;54.40;100752.19;2088522;28;47542;-57
2022/06/26 00:50:32;;;;;;;;;2.00;2.00;;;;;20.41;54.09;100751.31;2088684;28;47074;-57
2022/06/26 00:51:34;;;;;;;;;2.50;2.50;;;;;20.41;54.40;100745.94;2088318;28;47568;-59
2022/06/26 00:52:36;;;;;;;;;2.25;2.25;;;;;20.41;54.31;100752.19;2088154;28;47756;-57
2022/06/26 00:53:37;;;;;;;;;2.00;2.00;;;;;20.41;53.87;100745.94;2087953;28;46436;-57
2022/06/26 00:54:38;;;;;;;;;1.33;1.33;;;;;20.40;54.08;100753.16;2089499;28;47413;-57
2022/06/26 00:55:38;;;;;;;;;2.00;2.00;;;;;20.40;53.83;100753.16;2095282;28;47215;-56
2022/06/26 00:56:40;;;;;;;;;3.00;2.33;;;;;20.41;54.28;100759.41;2094682;28;48233;-57
2022/06/26 00:57:40;;;;;;;;;2.75;2.75;;;;;20.41;53.75;100767.50;2093059;28;47461;-56
2022/06/26 00:58:41;;;;;;;;;2.00;2.00;;;;;20.40;53.74;100769.31;2088683;28;47525;-57
2022/06/26 00:59:42;;;;;;;;;2.00;2.00;;;;;20.39;53.88;100770.28;2088633;28;45502;-57
2022/06/26 01:00:42;;;;;;;;;1.67;1.67;;;;;20.38;54.31;100765.84;2088317;28;47624;-57
2022/06/26 01:01:43;;;;;;;;;1.00;1.00;;;;;20.37;54.08;100768.66;2088695;28;47660;-57
2022/06/26 01:02:43;;;;;;;;;2.00;2.00;;;;;20.37;54.18;100772.22;2088371;28;47935;-57
2022/06/26 01:03:43;;;;;;;;;2.67;2.67;;;;;20.37;53.86;100774.03;2088594;28;47503;-58
2022/06/26 01:04:44;;;;;;;;;1.00;1.00;;;;;20.37;53.84;100765.97;2088524;28;47469;-58
2022/06/26 01:05:44;;;;;;;;;1.00;1.00;;;;;20.37;53.82;100766.81;2088236;28;47171;-58
2022/06/26 01:06:47;;;;;;;;;3.33;3.00;;;;;20.37;54.44;100765.97;2088594;28;47832;-58
2022/06/26 01:07:47;;;;;;;;;2.00;2.00;;;;;20.36;53.96;100767.78;2088291;28;48087;-57
2022/06/26 01:08:48;;;;;;;;;4.33;3.00;;;;;20.36;54.56;100767.78;2088372;28;47406;-58
2022/06/26 01:09:48;;;;;;;;;1.33;1.00;;;;;20.36;53.76;100761.53;2087605;28;47458;-56
2022/06/26 01:10:49;;;;;;;;;2.00;2.00;;;;;20.35;54.60;100763.34;2086911;28;48037;-57
2022/06/26 01:11:50;;;;;;;;;2.00;2.00;;;;;20.35;54.26;100762.50;2092818;28;47595;-56
2022/06/26 01:12:51;;;;;;;;;2.50;2.00;;;;;20.33;54.29;100762.59;2088638;28;47632;-58
2022/06/26 01:13:54;;;;;;;;;3.00;2.00;;;;;20.32;53.93;100765.34;2083223;28;47893;-57
2022/06/26 01:14:54;;;;;;;;;2.00;2.00;;;;;20.31;54.08;100766.31;2078348;28;47594;-56
2022/06/26 01:15:55;;;;;;;;;1.00;1.00;;;;;20.29;54.34;100750.25;2088133;28;47384;-56
2022/06/26 01:16:55;;;;;;;;;1.33;1.00;;;;;20.29;54.30;100766.41;2088332;28;47943;-56
2022/06/26 01:17:55;;;;;;;;;4.00;3.00;;;;;20.29;54.32;100772.66;2088254;28;47114;-56
2022/06/26 01:18:56;;;;;;;;;0.00;0.00;;;;;20.29;54.18;100775.38;2088310;28;47820;-57
2022/06/26 01:19:57;;;;;;;;;2.00;2.00;;;;;20.29;54.45;100774.50;2085876;28;47616;-56
2022/06/26 01:20:58;;;;;;;;;2.00;2.00;;;;;20.28;54.03;100770.06;2080210;28;47670;-57
2022/06/26 01:21:58;;;;;;;;;3.25;2.25;;;;;20.28;54.25;100783.56;2081636;28;47778;-57
2022/06/26 01:23:06;;;;;;;;;3.33;2.67;;;;;20.28;54.08;100788.94;2083738;28;45502;-59
2022/06/26 01:24:07;;;;;;;;;1.50;1.50;;;;;20.27;54.02;100782.69;2088283;28;47530;-58
2022/06/26 01:25:08;;;;;;;;;2.00;2.00;;;;;20.27;54.07;100785.38;2088398;28;47739;-57
2022/06/26 01:26:08;;;;;;;;;3.33;3.33;;;;;20.27;54.47;100784.50;2088541;28;46511;-57
2022/06/26 01:27:09;;;;;;;;;2.00;2.00;;;;;20.27;54.28;100787.22;2088572;28;47696;-56
2022/06/26 01:28:09;;;;;;;;;3.00;3.00;;;;;20.26;54.57;100785.47;2083745;28;47147;-55
2022/06/26 01:29:10;;;;;;;;;2.67;2.67;;;;;20.26;54.55;100780.94;2079432;28;47856;-56
2022/06/26 01:30:11;;;;;;;;;3.25;1.50;;;;;20.26;54.45;100780.09;2084286;28;46503;-55
2022/06/26 01:31:12;;;;;;;;;1.75;1.75;;;;;20.26;53.96;100780.94;2082063;28;47046;-52
2022/06/26 01:32:12;;;;;;;;;0.00;0.00;;;;;20.25;54.54;100783.75;2079934;28;47994;-55
2022/06/26 01:33:12;;;;;;;;;1.67;1.00;;;;;20.24;54.20;100780.19;2083410;28;47396;-56
2022/06/26 01:34:13;;;;;;;;;2.00;2.00;;;;;20.24;54.58;100782.00;2088349;28;47537;-59
2022/06/26 01:35:14;;;;;;;;;1.33;1.00;;;;;20.23;53.96;100778.44;2088127;28;47015;-57
2022/06/26 01:36:14;;;;;;;;;1.00;1.00;;;;;20.23;54.22;100781.16;2087991;28;47339;-58
2022/06/26 01:37:15;;;;;;;;;2.00;2.00;;;;;20.23;53.98;100777.59;2088350;28;47353;-57
2022/06/26 01:38:21;;;;;;;;;3.00;2.00;;;;;20.22;54.31;100782.09;2088168;28;46903;-58
2022/06/26 01:39:21;;;;;;;;;2.50;2.50;;;;;20.21;53.97;100783.06;2094806;28;47343;-57
2022/06/26 01:40:22;;;;;;;;;3.00;3.00;;;;;20.20;54.22;100784.03;2095226;28;47524;-56
2022/06/26 01:41:22;;;;;;;;;1.00;1.00;;;;;20.21;54.20;100784.91;2088063;28;47430;-58
2022/06/26 01:42:23;;;;;;;;;1.67;1.67;;;;;20.19;54.12;100779.56;2088118;28;47919;-56
2022/06/26 01:43:26;;;;;;;;;1.33;1.33;;;;;20.20;54.22;100785.84;2088259;28;47413;-58
2022/06/26 01:44:27;;;;;;;;;2.00;2.00;;;;;20.18;54.02;100785.94;2088139;28;48166;-56
2022/06/26 01:45:27;;;;;;;;;2.00;2.00;;;;;20.18;54.02;100785.06;2080705;28;47793;-58
2022/06/26 01:46:28;;;;;;;;;3.33;3.33;;;;;20.17;54.59;100780.63;2092684;28;47842;-58
2022/06/26 01:47:28;;;;;;;;;4.00;4.00;;;;;20.15;53.97;100786.13;2091732;28;47622;-57
2022/06/26 01:48:30;;;;;;;;;4.00;2.67;;;;;20.16;54.06;100795.94;2086953;28;48187;-55
2022/06/26 01:49:31;;;;;;;;;2.25;2.25;;;;;20.15;54.05;100796.03;2088137;28;47360;-55
2022/06/26 01:50:31;;;;;;;;;1.33;1.33;;;;;20.15;54.07;100794.19;2085611;28;47473;-57
2022/06/26 01:51:32;;;;;;;;;2.00;2.00;;;;;20.15;54.58;100801.41;2080302;28;47852;-53
2022/06/26 01:52:32;;;;;;;;;3.33;2.00;;;;;20.14;54.21;100803.25;2079705;28;47555;-55
2022/06/26 01:53:34;;;;;;;;;1.33;1.33;;;;;20.14;54.16;100799.69;2083150;28;46768;-55
2022/06/26 01:54:35;;;;;;;;;2.00;2.00;;;;;20.12;54.27;100810.56;2089168;28;47912;-57
2022/06/26 01:55:35;;;;;;;;;3.67;3.00;;;;;20.11;54.26;100808.81;2085969;28;47765;-57
2022/06/26 01:56:36;;;;;;;;;4.67;3.00;;;;;20.13;54.51;100800.66;2079983;28;47861;-57
2022/06/26 01:57:36;;;;;;;;;2.33;2.33;;;;;20.12;54.50;100799.78;2087508;28;47411;-57
2022/06/26 01:58:37;;;;;;;;;3.00;3.00;;;;;20.12;53.97;100799.78;2088157;28;47183;-57
2022/06/26 01:59:37;;;;;;;;;2.67;2.00;;;;;20.11;54.17;100792.66;2088568;28;47579;-58
2022/06/26 02:00:40;;;;;;;;;1.67;1.67;;;;;20.13;54.19;100792.56;2078213;28;47363;-58
2022/06/26 02:01:41;;;;;;;;;1.75;1.75;;;;;20.12;54.21;100791.69;2078148;28;47714;-58
2022/06/26 02:02:41;;;;;;;;;2.00;2.00;;;;;20.12;54.20;100782.75;2079833;28;47555;-57
2022/06/26 02:03:41;;;;;;;;;1.33;1.33;;;;;20.13;53.99;100789.88;2084596;28;47891;-55
2022/06/26 02:04:42;;;;;;;;;2.67;2.67;;;;;20.13;54.15;100790.75;2088037;28;47572;-57
2022/06/26 02:05:43;;;;;;;;;2.00;2.00;;;;;20.13;54.00;100800.66;2087596;28;47219;-58
2022/06/26 02:06:43;;;;;;;;;3.00;2.00;;;;;20.13;53.93;100800.66;2087737;28;47627;-58
2022/06/26 02:07:44;;;;;;;;;1.33;1.00;;;;;20.13;54.13;100804.22;2088062;28;47557;-57
2022/06/26 02:08:44;;;;;;;;;2.67;2.67;;;;;20.12;54.42;100801.63;2087991;28;47601;-57
2022/06/26 02:13:43;;;;;;;;;3.00;3.00;;;;;20.10;54.17;100788.25;2088186;28;45613;-54
2022/06/26 02:14:44;;;;;;;;;2.25;2.25;;;;;20.10;54.58;100790.94;2088387;28;47967;-58
2022/06/26 02:15:44;;;;;;;;;5.00;2.33;;;;;20.09;54.64;100789.19;2088258;28;47683;-57
2022/06/26 02:16:44;;;;;;;;;2.00;2.00;;;;;20.10;54.31;100787.38;2088078;28;47430;-56
2022/06/26 02:17:45;;;;;;;;;2.67;2.67;;;;;20.10;54.50;100787.38;2086731;28;47032;-57
2022/06/26 02:18:51;;;;;;;;;2.67;2.67;;;;;20.10;54.08;100787.38;2084858;28;47905;-54
2022/06/26 02:19:52;;;;;;;;;2.75;2.75;;;;;20.10;54.44;100796.31;2085360;28;47870;-57
2022/06/26 02:20:53;;;;;;;;;3.00;3.00;;;;;20.10;54.44;100790.94;2088377;28;47801;-57
2022/06/26 02:21:53;;;;;;;;;2.75;2.75;;;;;20.09;54.51;100788.34;2084010;28;47408;-59
2022/06/26 02:22:54;;;;;;;;;1.00;1.00;;;;;20.07;54.20;100788.41;2083050;28;47766;-53
2022/06/26 02:23:55;;;;;;;;;2.00;2.00;;;;;20.07;54.06;100792.91;2088333;28;48136;-59
2022/06/26 02:24:55;;;;;;;;;2.50;2.50;;;;;20.07;54.44;100795.63;2094898;28;47528;-54
2022/06/26 02:25:56;;;;;;;;;2.00;2.00;;;;;20.07;54.24;100799.16;2095599;28;47921;-57
2022/06/26 02:26:56;;;;;;;;;4.67;3.00;;;;;20.07;54.31;100799.16;2087822;28;47483;-57
2022/06/26 02:27:57;;;;;;;;;4.67;3.00;;;;;20.07;54.03;100791.09;2087300;28;47284;-54
2022/06/26 02:28:57;;;;;;;;;2.67;2.67;;;;;20.07;54.52;100796.47;2087518;28;47443;-57
2022/06/26 02:29:57;;;;;;;;;3.00;3.00;;;;;20.07;54.04;100806.38;2087971;28;47337;-55
2022/06/26 02:30:58;;;;;;;;;3.67;3.67;;;;;20.07;54.32;100804.56;2088379;28;48004;-58
2022/06/26 02:31:59;;;;;;;;;2.33;2.33;;;;;20.06;54.48;100807.34;2087633;28;47305;-55
2022/06/26 02:32:59;;;;;;;;;1.00;1.00;;;;;20.06;54.09;100808.22;2088241;28;45857;-58
2022/06/26 02:34:00;;;;;;;;;2.00;2.00;;;;;20.06;53.96;100804.66;2088241;28;47626;-58
2022/06/26 02:35:00;;;;;;;;;4.00;3.00;;;;;20.05;54.34;100802.94;2087925;28;47338;-56
2022/06/26 02:36:03;;;;;;;;;2.00;2.00;;;;;20.05;54.43;100809.19;2087386;28;48252;-56
2022/06/26 02:37:04;;;;;;;;;2.50;2.00;;;;;20.04;54.23;100795.81;2084520;28;47529;-58
2022/06/26 02:38:04;;;;;;;;;4.00;3.33;;;;;20.03;53.93;100794.94;2085159;28;46870;-57
2022/06/26 02:39:04;;;;;;;;;3.67;3.00;;;;;20.03;54.41;100788.69;2087674;28;47815;-56
2022/06/26 02:40:05;;;;;;;;;4.00;4.00;;;;;20.03;54.53;100791.38;2087151;28;47874;-53
2022/06/26 02:41:06;;;;;;;;;4.00;4.00;;;;;20.02;54.11;100787.81;2087390;28;48637;-56
2022/06/26 02:42:07;;;;;;;;;2.33;2.33;;;;;20.01;54.06;100796.88;2087703;28;46756;-55
2022/06/26 02:43:07;;;;;;;;;3.00;3.00;;;;;20.01;54.54;100787.91;2088195;28;47793;-56
2022/06/26 02:44:07;;;;;;;;;4.67;3.67;;;;;20.00;54.31;100789.75;2090998;28;47819;-56
2022/06/26 02:45:08;;;;;;;;;3.00;2.00;;;;;19.99;54.15;100783.47;2078320;28;47464;-56
2022/06/26 02:46:09;;;;;;;;;2.67;2.67;;;;;19.98;54.08;100789.84;2086710;28;47566;-57
2022/06/26 02:47:10;;;;;;;;;1.25;1.25;;;;;19.98;54.29;100789.84;2096013;28;47417;-52
2022/06/26 02:48:11;;;;;;;;;2.00;2.00;;;;;19.98;54.33;100786.28;2087782;28;47695;-57
2022/06/26 02:49:11;;;;;;;;;3.00;3.00;;;;;19.98;54.25;100791.66;2085319;28;47655;-55
2022/06/26 02:50:12;;;;;;;;;2.67;2.67;;;;;19.99;54.23;100796.09;2079604;28;46845;-57
2022/06/26 02:51:13;;;;;;;;;3.00;3.00;;;;;19.99;54.07;100796.09;2086994;28;47487;-57
2022/06/26 02:52:13;;;;;;;;;2.00;2.00;;;;;19.98;54.25;100788.97;2087731;28;47373;-57
2022/06/26 02:53:15;;;;;;;;;4.33;3.67;;;;;19.96;54.61;100789.06;2082090;28;47805;-57
2022/06/26 02:54:15;;;;;;;;;2.25;2.25;;;;;19.96;54.36;100780.13;2082196;28;47772;-58
2022/06/26 02:55:15;;;;;;;;;3.00;3.00;;;;;19.96;54.10;100782.81;2086229;28;47181;-58
2022/06/26 02:56:16;;;;;;;;;3.00;3.00;;;;;19.96;54.53;100788.19;2087192;28;47386;-57
2022/06/26 02:57:16;;;;;;;;;3.00;2.00;;;;;19.95;54.34;100787.34;2088019;28;47978;-57
2022/06/26 02:58:17;;;;;;;;;3.00;3.00;;;;;19.96;54.41;100788.19;2087703;28;46921;-56
2022/06/26 02:59:17;;;;;;;;;2.00;2.00;;;;;19.95;54.49;100790.03;2087937;28;47804;-56
2022/06/26 03:00:17;;;;;;;;;2.67;2.67;;;;;19.95;54.13;100792.72;2087036;28;47437;-55
2022/06/26 03:01:18;;;;;;;;;2.00;2.00;;;;;19.94;54.38;100790.09;2087320;28;47480;-55
2022/06/26 03:02:18;;;;;;;;;2.67;1.67;;;;;19.94;54.03;100799.03;2087895;28;47207;-57
2022/06/26 03:03:19;;;;;;;;;2.33;2.33;;;;;19.94;54.23;100793.66;2087842;28;47700;-59
2022/06/26 03:04:19;;;;;;;;;2.00;2.00;;;;;19.94;54.14;100790.09;2088012;28;47913;-58
2022/06/26 03:05:20;;;;;;;;;5.00;2.50;;;;;19.92;54.44;100792.88;2088038;28;47899;-58
2022/06/26 03:06:20;;;;;;;;;2.00;1.33;;;;;19.93;54.02;100793.75;2088155;28;47296;-57
2022/06/26 03:07:21;;;;;;;;;5.00;2.00;;;;;19.92;54.03;100800.97;2087939;28;47705;-57
2022/06/26 03:08:21;;;;;;;;;1.33;0.67;;;;;19.93;54.42;100791.91;2088057;28;47181;-55
2022/06/26 03:09:22;;;;;;;;;4.00;4.00;;;;;19.93;54.07;100802.69;2084491;28;47910;-57
2022/06/26 03:10:23;;;;;;;;;3.00;3.00;;;;;19.94;54.54;100800.84;2085728;28;47937;-57
2022/06/26 03:11:23;;;;;;;;;1.75;1.75;;;;;19.95;54.42;100814.28;2086946;28;48037;-57
2022/06/26 03:12:24;;;;;;;;;3.00;3.00;;;;;19.96;54.06;100807.91;2087992;28;47638;-55
2022/06/26 03:13:24;;;;;;;;;2.00;2.00;;;;;19.96;54.25;100807.06;2087549;28;47607;-60
2022/06/26 03:14:24;;;;;;;;;2.33;2.00;;;;;19.96;54.12;100809.75;2087801;28;47508;-56
2022/06/26 03:15:25;;;;;;;;;4.67;4.33;;;;;19.96;54.56;100802.53;2087525;28;47544;-57
2022/06/26 03:16:25;;;;;;;;;2.33;2.33;;;;;19.97;54.34;100815.03;2087879;28;47971;-57
2022/06/26 03:17:26;;;;;;;;;5.00;3.00;;;;;19.98;54.25;100802.44;2087676;28;47231;-56
2022/06/26 03:18:26;;;;;;;;;3.33;3.33;;;;;19.98;54.47;100802.44;2087842;28;48190;-57
2022/06/26 03:19:27;;;;;;;;;3.00;2.67;;;;;19.99;54.21;100804.16;2088022;28;47413;-57
2022/06/26 03:20:27;;;;;;;;;4.00;4.00;;;;;19.98;54.17;100808.69;2087797;28;48020;-57
2022/06/26 03:21:29;;;;;;;;;2.67;2.67;;;;;19.97;54.28;100801.56;2086277;28;47427;-57
2022/06/26 03:22:29;;;;;;;;;3.25;3.25;;;;;19.98;54.37;100802.44;2082322;28;46410;-58
2022/06/26 03:24:48;;;;;;;;;3.80;3.80;;;;;19.96;53.98;100809.75;2087775;28;47961;-58
2022/06/26 03:25:49;;;;;;;;;2.67;2.67;;;;;19.95;54.16;100800.81;2087657;28;47954;-55
2022/06/26 03:26:49;;;;;;;;;2.00;2.00;;;;;19.96;54.13;100807.91;2087150;28;47520;-57
2022/06/26 03:27:51;;;;;;;;;4.33;3.00;;;;;19.96;54.03;100807.06;2087957;28;47107;-57
2022/06/26 03:28:51;;;;;;;;;4.00;3.00;;;;;19.96;53.90;100810.63;2086771;28;47451;-55
2022/06/26 03:29:51;;;;;;;;;3.00;2.67;;;;;19.95;54.23;100806.19;2087413;28;47972;-57
2022/06/26 03:30:52;;;;;;;;;2.33;2.33;;;;;19.95;54.21;100814.28;2087963;28;47342;-56
2022/06/26 03:31:52;;;;;;;;;3.67;3.67;;;;;19.94;53.85;100814.34;2087782;28;46499;-58
2022/06/26 03:32:52;;;;;;;;;3.67;3.67;;;;;19.94;53.96;100811.63;2087589;28;47830;-56
2022/06/26 03:33:54;;;;;;;;;3.00;3.00;;;;;19.94;54.39;100811.63;2082979;28;47518;-57
2022/06/26 03:34:54;;;;;;;;;2.75;2.75;;;;;19.94;54.20;100814.34;2081779;28;47699;-58
2022/06/26 03:35:54;;;;;;;;;3.33;3.33;;;;;19.93;54.01;100812.59;2082861;28;48015;-56
2022/06/26 03:36:55;;;;;;;;;3.00;3.00;;;;;19.93;54.23;100813.47;2083037;28;47921;-58
2022/06/26 03:37:55;;;;;;;;;2.00;2.00;;;;;19.93;53.91;100810.78;2084558;28;46921;-57
2022/06/26 03:38:56;;;;;;;;;5.33;4.00;;;;;19.93;53.85;100805.38;2075067;28;47781;-56
2022/06/26 03:39:57;;;;;;;;;0.25;0.25;;;;;19.94;53.63;100811.63;2078036;28;45669;-57
2022/06/26 03:40:57;;;;;;;;;2.33;2.33;;;;;19.92;54.06;100816.25;2087736;28;47528;-57
2022/06/26 03:42:00;;;;;;;;;4.67;4.67;;;;;19.92;53.90;100818.94;2087534;28;47906;-55
2022/06/26 03:43:00;;;;;;;;;4.00;4.00;;;;;19.92;53.94;100810.88;2088661;28;48032;-55
2022/06/26 03:44:00;;;;;;;;;1.00;1.00;;;;;19.90;53.63;100813.66;2083774;28;48045;-54
2022/06/26 03:45:01;;;;;;;;;3.00;3.00;;;;;19.89;53.73;100819.13;2087430;28;47791;-58
2022/06/26 03:46:02;;;;;;;;;2.00;2.00;;;;;19.88;53.60;100820.97;2087043;28;48028;-57
2022/06/26 03:47:02;;;;;;;;;3.33;2.67;;;;;19.87;54.11;100819.22;2078779;28;47268;-56
2022/06/26 03:48:03;;;;;;;;;2.67;2.67;;;;;19.86;53.64;100820.19;2078883;28;47444;-57
2022/06/26 03:49:03;;;;;;;;;2.67;2.33;;;;;19.85;53.64;100815.75;2087189;28;47433;-58
2022/06/26 03:50:06;;;;;;;;;2.33;2.33;;;;;19.85;53.83;100818.44;2087177;28;47567;-56
2022/06/26 03:51:07;;;;;;;;;2.75;2.75;;;;;19.84;53.70;100818.53;2086952;28;46533;-61
2022/06/26 03:52:08;;;;;;;;;5.00;4.00;;;;;19.84;53.55;100818.53;2089072;28;47403;-57
2022/06/26 03:53:08;;;;;;;;;3.00;3.00;;;;;19.82;53.59;100817.75;2089230;28;47403;-58
2022/06/26 03:54:08;;;;;;;;;6.00;3.00;;;;;19.83;53.96;100822.19;2089025;28;47674;-56
2022/06/26 03:55:09;;;;;;;;;6.33;6.33;;;;;19.80;53.50;100819.66;2088958;28;47482;-57
2022/06/26 03:56:09;;;;;;;;;6.50;6.50;;;;;19.80;53.85;100820.53;2089147;28;47363;-56
2022/06/26 03:57:09;;;;;;;;;5.33;5.33;;;;;19.80;53.50;100823.22;2095859;28;47521;-57
2022/06/26 03:58:10;;;;;;;;;9.00;9.00;;;;;19.81;53.80;100833.03;2096360;28;47286;-56
2022/06/26 03:59:11;;;;;;;;;9.00;9.00;;;;;19.81;53.75;100826.78;2088206;28;47887;-56
2022/06/26 04:00:11;;;;;;;;;7.75;7.75;;;;;19.80;53.55;100823.22;2088981;28;47737;-57
2022/06/26 04:01:12;;;;;;;;;6.50;6.50;;;;;19.80;53.32;100823.22;2087338;28;47675;-57
2022/06/26 04:02:12;;;;;;;;;8.75;7.00;;;;;19.81;53.72;100833.03;2085322;28;47450;-57
2022/06/26 04:03:12;;;;;;;;;7.50;7.25;;;;;19.79;53.67;100824.19;2088919;28;47850;-56
2022/06/26 04:04:13;;;;;;;;;7.25;7.00;;;;;19.79;53.41;100821.50;2089003;28;47797;-57
2022/06/26 04:05:13;;;;;;;;;6.25;5.25;;;;;19.78;53.26;100833.22;2088686;28;47993;-56
2022/06/26 04:06:13;;;;;;;;;7.50;6.25;;;;;19.78;53.54;100830.53;2079397;28;46066;-55
2022/06/26 04:07:14;;;;;;;;;5.50;5.50;;;;;19.78;53.21;100832.34;2079318;28;47568;-57
2022/06/26 04:08:14;;;;;;;;;6.25;6.25;;;;;19.80;53.60;100835.81;2088416;28;47515;-56
2022/06/26 04:09:15;;;;;;;;;8.75;7.00;;;;;19.78;53.52;100835.91;2089264;28;47505;-56
2022/06/26 04:10:15;;;;;;;;;4.00;4.00;;;;;19.79;53.29;100839.47;2088619;28;47324;-57
2022/06/26 04:11:16;;;;;;;;;8.00;6.00;;;;;19.79;53.03;100837.66;2080071;28;47115;-56
2022/06/26 04:12:16;;;;;;;;;9.50;8.00;;;;;19.80;53.44;100842.06;2088579;28;47139;-56
2022/06/26 04:13:16;;;;;;;;;7.00;6.50;;;;;19.80;53.62;100843.91;2089081;28;47038;-53
2022/06/26 04:14:17;;;;;;;;;6.00;5.25;;;;;19.80;53.35;100843.91;2084511;28;47598;-57
2022/06/26 04:15:18;;;;;;;;;5.50;4.75;;;;;19.81;53.20;100851.88;2087360;28;47278;-56
2022/06/26 04:16:19;;;;;;;;;3.00;3.00;;;;;19.81;53.26;100853.72;2088420;28;47120;-57
2022/06/26 04:17:19;;;;;;;;;3.00;2.50;;;;;19.80;52.91;100849.28;2089310;28;47595;-56
2022/06/26 04:18:20;;;;;;;;;3.25;3.25;;;;;19.81;53.09;100853.72;2087194;28;46439;-57
2022/06/26 04:19:20;;;;;;;;;5.25;5.25;;;;;19.81;52.90;100861.78;2088927;28;47565;-58
2022/06/26 04:20:21;;;;;;;;;4.67;4.67;;;;;19.80;53.31;100858.22;2088769;28;47964;-57
2022/06/26 04:21:22;;;;;;;;;3.80;3.20;;;;;19.80;53.68;100865.44;2088938;28;47661;-57
2022/06/26 04:22:22;;;;;;;;;3.75;3.75;;;;;19.80;53.41;100854.66;2084296;28;47406;-58
2022/06/26 04:23:22;;;;;;;;;3.00;3.00;;;;;19.81;53.36;100861.78;2088955;28;47624;-57
2022/06/26 04:24:23;;;;;;;;;5.00;4.33;;;;;19.82;53.48;100871.59;2088676;28;47319;-56
2022/06/26 04:25:24;;;;;;;;;3.67;3.00;;;;;19.81;53.36;100865.34;2088917;28;47702;-58
2022/06/26 04:26:24;;;;;;;;;2.25;2.25;;;;;19.83;53.30;100870.69;2088567;28;47568;-56
2022/06/26 04:27:25;;;;;;;;;2.00;2.00;;;;;19.84;53.24;100867.03;2088798;28;47504;-55
2022/06/26 04:28:25;;;;;;;;;3.75;3.75;;;;;19.85;53.26;100868.75;2088744;28;47668;-57
2022/06/26 04:29:26;;;;;;;;;3.00;3.00;;;;;19.86;53.20;100867.81;2088715;28;47770;-57
2022/06/26 04:30:27;;;;;;;;;3.67;2.33;;;;;19.86;53.27;100873.19;2088315;28;47801;-55
2022/06/26 04:31:27;;;;;;;;;3.00;3.00;;;;;19.85;53.00;100875.00;2088688;28;47592;-57
2022/06/26 04:32:28;;;;;;;;;3.33;3.33;;;;;19.85;53.07;100872.31;2088467;28;46690;-57
2022/06/26 04:33:28;;;;;;;;;3.25;3.25;;;;;19.85;53.07;100874.16;2088797;28;47391;-58
2022/06/26 04:34:28;;;;;;;;;2.00;2.00;;;;;19.85;52.88;100880.41;2088585;28;46473;-55
2022/06/26 04:35:29;;;;;;;;;3.00;3.00;;;;;19.87;53.31;100880.31;2088222;28;47940;-57
2022/06/26 04:36:29;;;;;;;;;2.67;2.67;;;;;19.87;52.81;100874.91;2088910;28;47547;-56
2022/06/26 04:37:30;;;;;;;;;3.33;2.00;;;;;19.87;52.42;100877.63;2088810;28;47803;-58
2022/06/26 04:38:31;;;;;;;;;3.00;3.00;;;;;19.86;52.83;100875.88;2082749;28;45533;-56
2022/06/26 04:39:31;;;;;;;;;3.00;3.00;;;;;19.85;52.94;100866.94;2088763;28;47506;-56
2022/06/26 04:40:31;;;;;;;;;3.00;3.00;;;;;19.85;52.65;100872.31;2088676;28;47809;-54
2022/06/26 04:41:34;;;;;;;;;2.00;2.00;;;;;19.85;52.79;100871.44;2088726;28;47578;-57
2022/06/26 04:42:35;;;;;;;;;3.20;3.20;;;;;19.84;52.73;100872.41;2087086;28;47786;-58
2022/06/26 04:43:35;;;;;;;;;2.67;2.67;;;;;19.84;52.53;100878.66;2088842;28;47039;-58
2022/06/26 04:44:36;;;;;;;;;2.33;2.33;;;;;19.84;52.27;100875.97;2088499;28;47974;-56
2022/06/26 04:45:36;;;;;;;;;3.67;2.00;;;;;19.85;52.76;100874.16;2088434;28;45657;-57
2022/06/26 04:46:39;;;;;;;;;4.00;2.00;;;;;19.84;52.67;100875.09;2088024;28;47667;-57
2022/06/26 04:47:40;;;;;;;;;2.75;2.75;;;;;19.84;52.43;100880.50;2081303;28;48162;-55